Terminal Aerodrome Forecast
Issued by NWS

Home | Current Version | Previous Version | Text Only | Print | Product List | Glossary On
Versions: 1 2 3 4 5 6 7 8 9 10 11 12 13 14 15 16 17
000
FTUS43 KMQT 011130
TAFIWD
TAF
KIWD 011130Z 0112/0212 07005KT P6SM FEW050 BKN120
     FM011500 15010G19KT P6SM BKN110
     FM011700 16017G27KT P6SM SCT150
     FM012100 17019G31KT P6SM -SHRA BKN110
     FM020500 22012G19KT P6SM BKN050
     FM020800 26009KT P6SM BKN045
      AMD LTD TO CLD VIS AND WIND=

USA.gov is the U.S. government's official web portal to all federal, state and local government web resources and services.